Terminal Aerodrome Forecast
Issued by NWS

Home | Current Version | Previous Version | Text Only | Print | Product List | Glossary On
Versions: 1 2 3 4 5 6 7 8 9 10 11 12 13
329
FTUS43 KDTX 222323
TAFMBS
TAF
KMBS 222323Z 2300/2324 23005KT P6SM BKN040 OVC250
     FM230700 23007KT P6SM OVC100
     FM231600 23012KT P6SM SCT045 BKN100 OVC250=

USA.gov is the U.S. government's official web portal to all federal, state and local government web resources and services.